Overview Statistics Trail Chart Weather Telemetry Raw packets
 

This is the latest recevied weather packets stored in our database for station/object C31FR-13. If no packets are shown the sender has not sent any weather packets the latest 10 day(s).

<< 10 11 12 13 14 15 16 >>
Time Temp. Humidity Pressure Rain* Wind** Luminosity Snow
1788291363 23.89° C 56% 1022.5 hPa - - - -
1788291062 24.44° C 55% 1022.3 hPa - - - -
1788289563 24.44° C 52% 1022.1 hPa - - - -
1788288662 25° C 51% 1021.8 hPa - - - -
1788286563 25.56° C 48% 1021.4 hPa - - - -
1788285362 26.11° C 46% 1021.2 hPa - - - -
1788285062 26.11° C 46% 1021.2 hPa - - - -
1788284462 26.11° C 45% 1021.1 hPa - - - -
1788282962 26.67° C 43% 1021.1 hPa - - - -
1788282663 27.22° C 41% 1021 hPa - - - -
1788280862 28.33° C 39% 1020.8 hPa - - - -
1788278762 28.33° C 38% 1020.9 hPa - - - -
1788278162 28.89° C 37% 1020.8 hPa - - - -
1788276962 28.33° C 38% 1020.8 hPa - - - -
1788276363 27.78° C 39% 1020.8 hPa - - - -
1788275162 27.22° C 40% 1021 hPa - - - -
1788274262 27.22° C 41% 1021 hPa - - - -
1788273363 27.22° C 41% 1021.1 hPa - - - -
1788272463 27.22° C 40% 1021.1 hPa - - - -
1788271562 27.22° C 41% 1021.3 hPa - - - -
1788271262 27.22° C 41% 1021.4 hPa - - - -
1788270363 27.22° C 41% 1021.6 hPa - - - -
1788269461 26.11° C 43% 1021.7 hPa - - - -
1788267662 26.67° C 43% 1021.6 hPa - - - -
1788267362 26.67° C 43% 1021.6 hPa - - - -

* Rain since midnight (hover to see other rain measurements)
** Current wind speed in m/s (hover to see current wind gust speed)